sensor_id;sensor_type;location;lat;lon;timestamp;pressure;altitude;pressure_sealevel;temperature;humidity
22830;BME280;11581;51.250;6.778;2023-01-24T00:01:47;103320.75;;;6.69;64.21
22830;BME280;11581;51.250;6.778;2023-01-24T00:04:14;103296.31;;;6.61;64.44
22830;BME280;11581;51.250;6.778;2023-01-24T00:06:40;103307.78;;;6.40;64.57
22830;BME280;11581;51.250;6.778;2023-01-24T00:09:07;103313.84;;;6.65;64.33
22830;BME280;11581;51.250;6.778;2023-01-24T00:11:34;103300.66;;;6.64;64.47
22830;BME280;11581;51.250;6.778;2023-01-24T00:14:00;103307.72;;;6.63;64.31
22830;BME280;11581;51.250;6.778;2023-01-24T00:16:28;103305.97;;;6.64;64.19
22830;BME280;11581;51.250;6.778;2023-01-24T00:18:55;103312.09;;;6.64;64.48
22830;BME280;11581;51.250;6.778;2023-01-24T00:21:23;103307.91;;;6.59;64.50
22830;BME280;11581;51.250;6.778;2023-01-24T00:23:51;103312.97;;;6.65;64.09
22830;BME280;11581;51.250;6.778;2023-01-24T00:26:19;103282.88;;;6.44;64.20
22830;BME280;11581;51.250;6.778;2023-01-24T00:28:47;103301.88;;;6.55;64.07
22830;BME280;11581;51.250;6.778;2023-01-24T00:31:15;103317.69;;;6.58;64.53
22830;BME280;11581;51.250;6.778;2023-01-24T00:33:43;103305.31;;;6.57;64.19
22830;BME280;11581;51.250;6.778;2023-01-24T00:36:11;103313.34;;;6.56;64.21
22830;BME280;11581;51.250;6.778;2023-01-24T00:38:38;103310.69;;;6.56;64.93
22830;BME280;11581;51.250;6.778;2023-01-24T00:41:04;103310.63;;;6.57;64.97
22830;BME280;11581;51.250;6.778;2023-01-24T00:43:31;103308.91;;;6.56;64.77
22830;BME280;11581;51.250;6.778;2023-01-24T00:45:58;103316.81;;;6.58;64.87
22830;BME280;11581;51.250;6.778;2023-01-24T00:48:25;103300.91;;;6.58;64.86
22830;BME280;11581;51.250;6.778;2023-01-24T00:50:53;103297.38;;;6.57;64.71
22830;BME280;11581;51.250;6.778;2023-01-24T00:53:20;103294.13;;;6.51;64.77
22830;BME280;11581;51.250;6.778;2023-01-24T00:55:47;103303.59;;;6.56;64.58
22830;BME280;11581;51.250;6.778;2023-01-24T00:58:15;103295.00;;;6.50;64.30
22830;BME280;11581;51.250;6.778;2023-01-24T01:00:41;103302.78;;;6.54;64.71
22830;BME280;11581;51.250;6.778;2023-01-24T01:03:11;103294.94;;;6.51;64.40
22830;BME280;11581;51.250;6.778;2023-01-24T01:05:38;103294.13;;;6.51;64.70
22830;BME280;11581;51.250;6.778;2023-01-24T01:08:07;103301.25;;;6.49;64.46
22830;BME280;11581;51.250;6.778;2023-01-24T01:10:34;103296.94;;;6.46;64.50
22830;BME280;11581;51.250;6.778;2023-01-24T01:13:01;103245.38;;;6.10;64.55
22830;BME280;11581;51.250;6.778;2023-01-24T01:15:29;103303.25;;;6.44;64.45
22830;BME280;11581;51.250;6.778;2023-01-24T01:17:56;103297.19;;;6.40;64.16
22830;BME280;11581;51.250;6.778;2023-01-24T01:20:24;103305.19;;;6.39;64.62
22830;BME280;11581;51.250;6.778;2023-01-24T01:22:52;103307.91;;;6.37;64.55
22830;BME280;11581;51.250;6.778;2023-01-24T01:25:20;103307.13;;;6.34;64.08
22830;BME280;11581;51.250;6.778;2023-01-24T01:27:46;103287.44;;;6.18;64.46
22830;BME280;11581;51.250;6.778;2023-01-24T01:30:13;103308.25;;;6.28;64.32
22830;BME280;11581;51.250;6.778;2023-01-24T01:32:40;103311.94;;;6.24;64.66
22830;BME280;11581;51.250;6.778;2023-01-24T01:35:07;103305.16;;;6.17;64.87
22830;BME280;11581;51.250;6.778;2023-01-24T01:37:34;103251.59;;;5.86;64.97
22830;BME280;11581;51.250;6.778;2023-01-24T01:40:00;103315.59;;;6.22;64.84
22830;BME280;11581;51.250;6.778;2023-01-24T01:42:41;103309.41;;;6.21;63.72
22830;BME280;11581;51.250;6.778;2023-01-24T01:45:30;103313.00;;;6.20;63.72
22830;BME280;11581;51.250;6.778;2023-01-24T01:47:57;103319.13;;;6.21;64.66
22830;BME280;11581;51.250;6.778;2023-01-24T01:50:29;103295.94;;;6.04;64.44
22830;BME280;11581;51.250;6.778;2023-01-24T01:52:57;103306.31;;;6.10;64.83
22830;BME280;11581;51.250;6.778;2023-01-24T01:55:26;103315.88;;;6.14;64.31
22830;BME280;11581;51.250;6.778;2023-01-24T01:57:58;103272.78;;;5.86;64.39
22830;BME280;11581;51.250;6.778;2023-01-24T02:00:26;103317.66;;;6.14;64.79
22830;BME280;11581;51.250;6.778;2023-01-24T02:02:55;103307.09;;;6.12;64.75
22830;BME280;11581;51.250;6.778;2023-01-24T02:05:44;103309.69;;;6.14;64.94
22830;BME280;11581;51.250;6.778;2023-01-24T02:08:18;103314.09;;;6.15;64.50
22830;BME280;11581;51.250;6.778;2023-01-24T02:10:47;103321.13;;;6.16;65.23
22830;BME280;11581;51.250;6.778;2023-01-24T02:13:33;103323.66;;;6.19;64.76
22830;BME280;11581;51.250;6.778;2023-01-24T02:16:00;103315.00;;;6.14;64.87
22830;BME280;11581;51.250;6.778;2023-01-24T02:18:30;103326.34;;;6.17;64.98
22830;BME280;11581;51.250;6.778;2023-01-24T02:20:57;103333.38;;;6.18;64.74
22830;BME280;11581;51.250;6.778;2023-01-24T02:23:31;103315.75;;;6.17;63.90
22830;BME280;11581;51.250;6.778;2023-01-24T02:26:08;103301.03;;;6.10;63.88
22830;BME280;11581;51.250;6.778;2023-01-24T02:28:36;103295.78;;;6.09;64.64
22830;BME280;11581;51.250;6.778;2023-01-24T02:31:04;103295.78;;;6.09;64.80
22830;BME280;11581;51.250;6.778;2023-01-24T02:33:32;103305.28;;;6.14;64.51
22830;BME280;11581;51.250;6.778;2023-01-24T02:36:17;103305.28;;;6.14;63.59
22830;BME280;11581;51.250;6.778;2023-01-24T02:38:49;103299.03;;;6.15;64.19
22830;BME280;11581;51.250;6.778;2023-01-24T02:41:19;103284.53;;;6.02;64.22
22830;BME280;11581;51.250;6.778;2023-01-24T02:43:49;103299.03;;;6.15;64.81
22830;BME280;11581;51.250;6.778;2023-01-24T02:46:19;103298.09;;;6.16;64.77
22830;BME280;11581;51.250;6.778;2023-01-24T02:48:45;103292.91;;;6.15;64.64
22830;BME280;11581;51.250;6.778;2023-01-24T02:51:12;103303.41;;;6.16;64.82
22830;BME280;11581;51.250;6.778;2023-01-24T02:53:56;103299.81;;;6.19;63.97
22830;BME280;11581;51.250;6.778;2023-01-24T02:56:24;103298.00;;;6.19;64.34
22830;BME280;11581;51.250;6.778;2023-01-24T02:59:08;103289.47;;;6.11;64.73
22830;BME280;11581;51.250;6.778;2023-01-24T03:01:35;103286.78;;;6.13;64.92
22830;BME280;11581;51.250;6.778;2023-01-24T03:04:02;103289.19;;;6.19;64.67
22830;BME280;11581;51.250;6.778;2023-01-24T03:06:30;103278.88;;;6.11;64.60
22830;BME280;11581;51.250;6.778;2023-01-24T03:08:57;103265.03;;;6.03;64.58
22830;BME280;11581;51.250;6.778;2023-01-24T03:11:37;103286.44;;;6.22;64.72
22830;BME280;11581;51.250;6.778;2023-01-24T03:14:04;103289.03;;;6.23;64.63
22830;BME280;11581;51.250;6.778;2023-01-24T03:16:48;103282.78;;;6.24;64.63
22830;BME280;11581;51.250;6.778;2023-01-24T03:19:32;103270.66;;;6.19;64.63
22830;BME280;11581;51.250;6.778;2023-01-24T03:22:16;103287.09;;;6.27;64.35
22830;BME280;11581;51.250;6.778;2023-01-24T03:25:01;103268.78;;;6.21;64.54
22830;BME280;11581;51.250;6.778;2023-01-24T03:27:46;103291.56;;;6.26;63.92
22830;BME280;11581;51.250;6.778;2023-01-24T03:30:32;103278.53;;;6.20;64.27
22830;BME280;11581;51.250;6.778;2023-01-24T03:33:17;103283.59;;;6.26;64.21
22830;BME280;11581;51.250;6.778;2023-01-24T03:36:01;103280.03;;;6.27;63.80
22830;BME280;11581;51.250;6.778;2023-01-24T03:38:34;103198.91;;;5.77;64.75
22830;BME280;11581;51.250;6.778;2023-01-24T03:41:19;103230.06;;;5.95;64.58
22830;BME280;11581;51.250;6.778;2023-01-24T03:43:48;103298.53;;;6.29;64.29
22830;BME280;11581;51.250;6.778;2023-01-24T03:46:14;103281.19;;;6.20;63.71
22830;BME280;11581;51.250;6.778;2023-01-24T03:48:48;103293.41;;;6.24;63.96
22830;BME280;11581;51.250;6.778;2023-01-24T03:51:15;103290.84;;;6.21;64.03
22830;BME280;11581;51.250;6.778;2023-01-24T03:53:59;103275.31;;;6.12;64.00
22830;BME280;11581;51.250;6.778;2023-01-24T03:56:33;103290.25;;;6.15;63.71
22830;BME280;11581;51.250;6.778;2023-01-24T03:59:01;103287.66;;;6.13;63.73
22830;BME280;11581;51.250;6.778;2023-01-24T04:01:31;103295.66;;;6.12;63.99
22830;BME280;11581;51.250;6.778;2023-01-24T04:04:06;103300.09;;;6.11;63.88
22830;BME280;11581;51.250;6.778;2023-01-24T04:06:33;103291.31;;;6.09;64.16
22830;BME280;11581;51.250;6.778;2023-01-24T04:09:03;103291.31;;;6.09;64.32
22830;BME280;11581;51.250;6.778;2023-01-24T04:11:30;103292.19;;;6.10;64.26
22830;BME280;11581;51.250;6.778;2023-01-24T04:14:05;103306.31;;;6.10;64.08
22830;BME280;11581;51.250;6.778;2023-01-24T04:16:34;103276.69;;;5.99;64.12
22830;BME280;11581;51.250;6.778;2023-01-24T04:19:24;103288.66;;;6.09;64.08
22830;BME280;11581;51.250;6.778;2023-01-24T04:21:50;103286.00;;;6.09;63.90
22830;BME280;11581;51.250;6.778;2023-01-24T04:24:18;103286.94;;;6.08;63.95
22830;BME280;11581;51.250;6.778;2023-01-24T04:26:45;103282.53;;;6.09;64.08
22830;BME280;11581;51.250;6.778;2023-01-24T04:29:18;103286.00;;;6.09;63.89
22830;BME280;11581;51.250;6.778;2023-01-24T04:31:48;103281.59;;;6.10;64.15
22830;BME280;11581;51.250;6.778;2023-01-24T04:34:26;103279.75;;;6.12;64.04
22830;BME280;11581;51.250;6.778;2023-01-24T04:36:53;103253.00;;;5.95;63.67
22830;BME280;11581;51.250;6.778;2023-01-24T04:39:20;103277.16;;;6.10;63.84
22830;BME280;11581;51.250;6.778;2023-01-24T04:41:57;103283.38;;;6.09;64.05
22830;BME280;11581;51.250;6.778;2023-01-24T04:44:25;103292.19;;;6.10;63.69
22830;BME280;11581;51.250;6.778;2023-01-24T04:46:52;103226.44;;;5.73;63.45
22830;BME280;11581;51.250;6.778;2023-01-24T04:49:18;103273.16;;;6.00;63.61
22830;BME280;11581;51.250;6.778;2023-01-24T04:51:47;103288.00;;;6.04;63.70
22830;BME280;11581;51.250;6.778;2023-01-24T04:54:19;103290.75;;;6.01;63.30
22830;BME280;11581;51.250;6.778;2023-01-24T04:56:46;103287.28;;;5.99;63.30
22830;BME280;11581;51.250;6.778;2023-01-24T04:59:13;103296.16;;;5.98;63.57
22830;BME280;11581;51.250;6.778;2023-01-24T05:01:43;103297.94;;;5.98;63.46
22830;BME280;11581;51.250;6.778;2023-01-24T05:04:22;103292.66;;;5.98;63.78
22830;BME280;11581;51.250;6.778;2023-01-24T05:06:48;103287.56;;;5.92;63.56
22830;BME280;11581;51.250;6.778;2023-01-24T05:09:16;103288.34;;;5.95;63.59
22830;BME280;11581;51.250;6.778;2023-01-24T05:11:52;103290.16;;;5.93;63.48
22830;BME280;11581;51.250;6.778;2023-01-24T05:14:19;103290.16;;;5.93;63.40
22830;BME280;11581;51.250;6.778;2023-01-24T05:16:47;103285.22;;;5.84;63.31
22830;BME280;11581;51.250;6.778;2023-01-24T05:19:15;103295.56;;;5.90;63.56
22830;BME280;11581;51.250;6.778;2023-01-24T05:21:42;103280.84;;;5.83;63.56
22830;BME280;11581;51.250;6.778;2023-01-24T05:24:08;103261.19;;;5.64;63.88
22830;BME280;11581;51.250;6.778;2023-01-24T05:26:37;103295.69;;;5.87;63.62
22830;BME280;11581;51.250;6.778;2023-01-24T05:29:04;103283.03;;;5.71;63.78
22830;BME280;11581;51.250;6.778;2023-01-24T05:31:31;103300.25;;;5.84;63.49
22830;BME280;11581;51.250;6.778;2023-01-24T05:33:59;103289.91;;;5.76;63.49
22830;BME280;11581;51.250;6.778;2023-01-24T05:36:28;103303.03;;;5.79;63.61
22830;BME280;11581;51.250;6.778;2023-01-24T05:38:55;103259.81;;;5.54;63.94
22830;BME280;11581;51.250;6.778;2023-01-24T05:41:22;103302.97;;;5.81;63.84
22830;BME280;11581;51.250;6.778;2023-01-24T05:43:51;103299.44;;;5.80;63.86
22830;BME280;11581;51.250;6.778;2023-01-24T05:46:23;103297.84;;;5.76;63.88
22830;BME280;11581;51.250;6.778;2023-01-24T05:49:03;103317.13;;;5.81;63.64
22830;BME280;11581;51.250;6.778;2023-01-24T05:51:29;103317.13;;;5.81;63.74
22830;BME280;11581;51.250;6.778;2023-01-24T05:53:56;103252.25;;;5.44;63.53
22830;BME280;11581;51.250;6.778;2023-01-24T05:56:46;103280.09;;;5.55;63.64
22830;BME280;11581;51.250;6.778;2023-01-24T05:59:13;103312.81;;;5.77;63.64
22830;BME280;11581;51.250;6.778;2023-01-24T06:01:40;103319.91;;;5.77;63.68
22830;BME280;11581;51.250;6.778;2023-01-24T06:04:09;103267.41;;;5.40;63.47
22830;BME280;11581;51.250;6.778;2023-01-24T06:06:37;103329.50;;;5.79;63.80
22830;BME280;11581;51.250;6.778;2023-01-24T06:09:04;103303.69;;;5.61;64.10
22830;BME280;11581;51.250;6.778;2023-01-24T06:11:31;103332.09;;;5.82;63.98
22830;BME280;11581;51.250;6.778;2023-01-24T06:14:18;103188.53;;;5.01;63.98
22830;BME280;11581;51.250;6.778;2023-01-24T06:16:47;103338.06;;;5.87;64.06
22830;BME280;11581;51.250;6.778;2023-01-24T06:19:16;103324.22;;;5.79;63.67
22830;BME280;11581;51.250;6.778;2023-01-24T06:21:44;103337.97;;;5.90;63.73
22830;BME280;11581;51.250;6.778;2023-01-24T06:24:17;103339.94;;;5.85;63.57
22830;BME280;11581;51.250;6.778;2023-01-24T06:27:01;103335.31;;;5.90;63.76
22830;BME280;11581;51.250;6.778;2023-01-24T06:29:28;103345.78;;;5.93;64.03
22830;BME280;11581;51.250;6.778;2023-01-24T06:32:03;103335.38;;;5.89;63.01
22830;BME280;11581;51.250;6.778;2023-01-24T06:34:41;103362.50;;;5.95;62.98
22830;BME280;11581;51.250;6.778;2023-01-24T06:37:15;103352.78;;;5.96;63.14
22830;BME280;11581;51.250;6.778;2023-01-24T06:39:49;103351.03;;;5.95;62.91
22830;BME280;11581;51.250;6.778;2023-01-24T06:42:17;103343.25;;;5.90;63.51
22830;BME280;11581;51.250;6.778;2023-01-24T06:44:44;103355.44;;;5.96;63.83
22830;BME280;11581;51.250;6.778;2023-01-24T06:47:12;103357.22;;;5.95;63.95
22830;BME280;11581;51.250;6.778;2023-01-24T06:49:40;103338.88;;;5.89;63.60
22830;BME280;11581;51.250;6.778;2023-01-24T06:52:07;103362.41;;;5.98;63.66
22830;BME280;11581;51.250;6.778;2023-01-24T06:54:34;103331.09;;;5.85;63.54
22830;BME280;11581;51.250;6.778;2023-01-24T06:57:01;103360.69;;;5.97;63.55
22830;BME280;11581;51.250;6.778;2023-01-24T06:59:28;103345.22;;;5.85;63.38
22830;BME280;11581;51.250;6.778;2023-01-24T07:01:55;103363.34;;;5.97;63.34
22830;BME280;11581;51.250;6.778;2023-01-24T07:04:22;103355.59;;;5.91;63.48
22830;BME280;11581;51.250;6.778;2023-01-24T07:06:50;103359.41;;;5.84;63.23
22830;BME280;11581;51.250;6.778;2023-01-24T07:09:18;103378.47;;;5.94;63.66
22830;BME280;11581;51.250;6.778;2023-01-24T07:11:45;103294.59;;;5.44;63.64
22830;BME280;11581;51.250;6.778;2023-01-24T07:14:15;103370.56;;;5.92;63.55
22830;BME280;11581;51.250;6.778;2023-01-24T07:16:41;103341.94;;;5.77;63.62
22830;BME280;11581;51.250;6.778;2023-01-24T07:19:13;103355.00;;;5.83;63.16
22830;BME280;11581;51.250;6.778;2023-01-24T07:21:41;103384.03;;;5.86;63.80
22830;BME280;11581;51.250;6.778;2023-01-24T07:24:13;103375.03;;;5.90;63.17
22830;BME280;11581;51.250;6.778;2023-01-24T07:26:43;103389.88;;;5.96;63.73
22830;BME280;11581;51.250;6.778;2023-01-24T07:29:10;103399.59;;;5.95;63.68
22830;BME280;11581;51.250;6.778;2023-01-24T07:31:37;103377.88;;;5.86;63.84
22830;BME280;11581;51.250;6.778;2023-01-24T07:34:04;103395.19;;;5.96;63.48
22830;BME280;11581;51.250;6.778;2023-01-24T07:36:31;103376.25;;;5.82;63.41
22830;BME280;11581;51.250;6.778;2023-01-24T07:38:58;103398.09;;;5.88;63.76
22830;BME280;11581;51.250;6.778;2023-01-24T07:41:26;103400.47;;;5.96;63.61
22830;BME280;11581;51.250;6.778;2023-01-24T07:43:52;103412.78;;;5.97;63.61
22830;BME280;11581;51.250;6.778;2023-01-24T07:46:19;103408.38;;;5.97;63.73
22830;BME280;11581;51.250;6.778;2023-01-24T07:48:46;103395.44;;;5.88;63.58
22830;BME280;11581;51.250;6.778;2023-01-24T07:51:13;103409.44;;;5.92;63.52
22830;BME280;11581;51.250;6.778;2023-01-24T07:53:39;103409.22;;;5.98;63.46
22830;BME280;11581;51.250;6.778;2023-01-24T07:56:07;103352.94;;;5.67;63.48
22830;BME280;11581;51.250;6.778;2023-01-24T07:58:35;103410.16;;;5.97;63.33
22830;BME280;11581;51.250;6.778;2023-01-24T08:01:01;103398.84;;;5.92;63.72
22830;BME280;11581;51.250;6.778;2023-01-24T08:03:28;103401.38;;;5.95;63.85
22830;BME280;11581;51.250;6.778;2023-01-24T08:05:55;103412.69;;;6.00;63.54
22830;BME280;11581;51.250;6.778;2023-01-24T08:08:21;103408.25;;;6.00;63.95
22830;BME280;11581;51.250;6.778;2023-01-24T08:10:48;103416.13;;;6.02;63.83
22830;BME280;11581;51.250;6.778;2023-01-24T08:13:15;103412.63;;;6.01;63.74
22830;BME280;11581;51.250;6.778;2023-01-24T08:15:43;103360.00;;;5.66;63.31
22830;BME280;11581;51.250;6.778;2023-01-24T08:18:10;103392.59;;;5.94;63.60
22830;BME280;11581;51.250;6.778;2023-01-24T08:20:37;103401.22;;;5.99;63.83
22830;BME280;11581;51.250;6.778;2023-01-24T08:23:03;103409.06;;;6.02;63.69
22830;BME280;11581;51.250;6.778;2023-01-24T08:25:30;103390.72;;;5.96;63.59
22830;BME280;11581;51.250;6.778;2023-01-24T08:27:57;103427.22;;;6.13;63.46
22830;BME280;11581;51.250;6.778;2023-01-24T08:30:24;103415.28;;;6.01;63.49
22830;BME280;11581;51.250;6.778;2023-01-24T08:33:00;103430.75;;;6.13;62.41
22830;BME280;11581;51.250;6.778;2023-01-24T08:35:27;103351.03;;;5.70;63.59
22830;BME280;11581;51.250;6.778;2023-01-24T08:37:53;103435.19;;;6.13;63.87
22830;BME280;11581;51.250;6.778;2023-01-24T08:40:20;103426.34;;;6.12;63.64
22830;BME280;11581;51.250;6.778;2023-01-24T08:42:47;103440.44;;;6.14;63.64
22830;BME280;11581;51.250;6.778;2023-01-24T08:45:14;103373.81;;;5.74;63.75
22830;BME280;11581;51.250;6.778;2023-01-24T08:47:41;103449.00;;;6.21;63.85
22830;BME280;11581;51.250;6.778;2023-01-24T08:50:09;103425.50;;;6.12;63.40
22830;BME280;11581;51.250;6.778;2023-01-24T08:52:40;103446.97;;;6.29;63.46
22830;BME280;11581;51.250;6.778;2023-01-24T08:55:07;103447.69;;;6.32;63.42
22830;BME280;11581;51.250;6.778;2023-01-24T08:57:34;103389.78;;;5.99;63.30
22830;BME280;11581;51.250;6.778;2023-01-24T09:00:01;103421.97;;;6.11;63.29
22830;BME280;11581;51.250;6.778;2023-01-24T09:02:27;103451.13;;;6.36;63.05
22830;BME280;11581;51.250;6.778;2023-01-24T09:04:54;103451.16;;;6.34;63.28
22830;BME280;11581;51.250;6.778;2023-01-24T09:07:22;103458.31;;;6.32;63.32
22830;BME280;11581;51.250;6.778;2023-01-24T09:09:49;103387.28;;;5.94;63.58
22830;BME280;11581;51.250;6.778;2023-01-24T09:12:16;103460.38;;;6.24;63.54
22830;BME280;11581;51.250;6.778;2023-01-24T09:14:42;103400.13;;;6.05;63.62
22830;BME280;11581;51.250;6.778;2023-01-24T09:17:09;103454.41;;;6.42;63.75
22830;BME280;11581;51.250;6.778;2023-01-24T09:19:36;103431.94;;;6.29;63.59
22830;BME280;11581;51.250;6.778;2023-01-24T09:22:02;103461.22;;;6.49;63.38
22830;BME280;11581;51.250;6.778;2023-01-24T09:24:30;103457.53;;;6.53;63.04
22830;BME280;11581;51.250;6.778;2023-01-24T09:26:57;103460.00;;;6.58;63.31
22830;BME280;11581;51.250;6.778;2023-01-24T09:29:24;103441.84;;;6.47;62.92
22830;BME280;11581;51.250;6.778;2023-01-24T09:31:50;103451.41;;;6.51;62.84
22830;BME280;11581;51.250;6.778;2023-01-24T09:34:20;103289.66;;;5.59;62.67
22830;BME280;11581;51.250;6.778;2023-01-24T09:36:47;103472.28;;;6.60;62.74
22830;BME280;11581;51.250;6.778;2023-01-24T09:39:14;103471.41;;;6.60;62.93
22830;BME280;11581;51.250;6.778;2023-01-24T09:41:58;103467.91;;;6.59;61.50
22830;BME280;11581;51.250;6.778;2023-01-24T09:44:27;103478.34;;;6.64;62.10
22830;BME280;11581;51.250;6.778;2023-01-24T09:46:58;103402.00;;;6.26;63.01
22830;BME280;11581;51.250;6.778;2023-01-24T09:49:34;103479.13;;;6.66;61.75
22830;BME280;11581;51.250;6.778;2023-01-24T09:52:06;103408.13;;;6.28;62.27
22830;BME280;11581;51.250;6.778;2023-01-24T09:54:36;103474.00;;;6.61;62.83
22830;BME280;11581;51.250;6.778;2023-01-24T09:57:11;103471.25;;;6.64;61.96
22830;BME280;11581;51.250;6.778;2023-01-24T09:59:42;103479.78;;;6.72;62.33
22830;BME280;11581;51.250;6.778;2023-01-24T10:02:15;103446.91;;;6.53;61.50
22830;BME280;11581;51.250;6.778;2023-01-24T10:04:43;103478.81;;;6.75;62.66
22830;BME280;11581;51.250;6.778;2023-01-24T10:07:25;103425.88;;;6.49;61.57
22830;BME280;11581;51.250;6.778;2023-01-24T10:10:03;103449.19;;;6.64;61.51
22830;BME280;11581;51.250;6.778;2023-01-24T10:12:45;103462.78;;;6.78;61.34
22830;BME280;11581;51.250;6.778;2023-01-24T10:15:24;103477.47;;;6.86;61.63
22830;BME280;11581;51.250;6.778;2023-01-24T10:18:04;103475.63;;;6.88;61.45
22830;BME280;11581;51.250;6.778;2023-01-24T10:20:45;103449.34;;;6.82;61.10
22830;BME280;11581;51.250;6.778;2023-01-24T10:23:17;103471.69;;;6.99;62.37
22830;BME280;11581;51.250;6.778;2023-01-24T10:25:51;103471.59;;;7.02;61.70
22830;BME280;11581;51.250;6.778;2023-01-24T10:28:24;103430.06;;;6.77;61.34
22830;BME280;11581;51.250;6.778;2023-01-24T10:31:11;103487.28;;;7.08;60.39
22830;BME280;11581;51.250;6.778;2023-01-24T10:33:44;103479.25;;;7.09;61.42
22830;BME280;11581;51.250;6.778;2023-01-24T10:36:17;103477.38;;;7.11;61.21
22830;BME280;11581;51.250;6.778;2023-01-24T10:38:46;103432.78;;;6.76;61.64
22830;BME280;11581;51.250;6.778;2023-01-24T10:41:18;103452.41;;;6.93;60.64
22830;BME280;11581;51.250;6.778;2023-01-24T10:43:50;103369.91;;;6.33;60.10
22830;BME280;11581;51.250;6.778;2023-01-24T10:46:46;103476.25;;;6.95;59.65
22830;BME280;11581;51.250;6.778;2023-01-24T10:49:20;103437.56;;;6.66;60.83
22830;BME280;11581;51.250;6.778;2023-01-24T10:52:08;103480.13;;;6.86;59.82
22830;BME280;11581;51.250;6.778;2023-01-24T10:54:42;103415.44;;;6.44;60.48
22830;BME280;11581;51.250;6.778;2023-01-24T10:57:16;103395.59;;;6.31;60.53
22830;BME280;11581;51.250;6.778;2023-01-24T10:59:46;103467.19;;;6.77;61.53
22830;BME280;11581;51.250;6.778;2023-01-24T11:02:20;103472.50;;;6.77;60.77
22830;BME280;11581;51.250;6.778;2023-01-24T11:04:52;103463.13;;;6.69;61.01
22830;BME280;11581;51.250;6.778;2023-01-24T11:07:27;103409.28;;;6.44;60.64
22830;BME280;11581;51.250;6.778;2023-01-24T11:09:54;103436.09;;;6.59;61.98
22830;BME280;11581;51.250;6.778;2023-01-24T11:12:20;103458.34;;;6.78;61.73
22830;BME280;11581;51.250;6.778;2023-01-24T11:14:49;103467.19;;;6.77;61.36
22830;BME280;11581;51.250;6.778;2023-01-24T11:17:30;103463.75;;;6.75;60.14
22830;BME280;11581;51.250;6.778;2023-01-24T11:19:58;103480.53;;;6.76;61.95
22830;BME280;11581;51.250;6.778;2023-01-24T11:22:28;103455.75;;;6.77;62.14
22830;BME280;11581;51.250;6.778;2023-01-24T11:25:02;103453.75;;;6.82;62.35
22830;BME280;11581;51.250;6.778;2023-01-24T11:27:29;103451.81;;;6.87;62.70
22830;BME280;11581;51.250;6.778;2023-01-24T11:30:15;103450.81;;;6.89;60.64
22830;BME280;11581;51.250;6.778;2023-01-24T11:32:49;103444.34;;;6.97;61.40
22830;BME280;11581;51.250;6.778;2023-01-24T11:35:22;103410.34;;;6.84;61.56
22830;BME280;11581;51.250;6.778;2023-01-24T11:38:10;103415.28;;;6.93;60.17
22830;BME280;11581;51.250;6.778;2023-01-24T11:40:42;103448.59;;;7.24;61.10
22830;BME280;11581;51.250;6.778;2023-01-24T11:43:31;103440.75;;;7.21;60.06
22830;BME280;11581;51.250;6.778;2023-01-24T11:46:13;103415.38;;;7.14;59.82
22830;BME280;11581;51.250;6.778;2023-01-24T11:48:49;103441.97;;;7.34;60.47
22830;BME280;11581;51.250;6.778;2023-01-24T11:51:25;103439.25;;;7.35;60.46
22830;BME280;11581;51.250;6.778;2023-01-24T11:54:04;103445.28;;;7.39;59.75
22830;BME280;11581;51.250;6.778;2023-01-24T11:56:38;103438.13;;;7.41;60.26
22830;BME280;11581;51.250;6.778;2023-01-24T11:59:17;103438.13;;;7.41;59.76
22830;BME280;11581;51.250;6.778;2023-01-24T12:01:54;103423.00;;;7.43;59.58
22830;BME280;11581;51.250;6.778;2023-01-24T12:07:21;103413.16;;;7.45;59.85
22830;BME280;11581;51.250;6.778;2023-01-24T12:09:59;103409.44;;;7.49;60.26
22830;BME280;11581;51.250;6.778;2023-01-24T12:12:34;103400.69;;;7.47;60.86
22830;BME280;11581;51.250;6.778;2023-01-24T12:15:20;103404.06;;;7.50;59.42
22830;BME280;11581;51.250;6.778;2023-01-24T12:18:01;103416.13;;;7.59;60.09
22830;BME280;11581;51.250;6.778;2023-01-24T12:20:49;103409.75;;;7.63;59.61
22830;BME280;11581;51.250;6.778;2023-01-24T12:23:23;103407.22;;;7.60;60.11
22830;BME280;11581;51.250;6.778;2023-01-24T12:25:53;103344.78;;;7.30;60.71
22830;BME280;11581;51.250;6.778;2023-01-24T12:28:27;103391.03;;;7.66;59.72
22830;BME280;11581;51.250;6.778;2023-01-24T12:30:57;103397.94;;;7.70;60.77
22830;BME280;11581;51.250;6.778;2023-01-24T12:33:32;103387.25;;;7.71;59.59
22830;BME280;11581;51.250;6.778;2023-01-24T12:36:03;103386.22;;;7.74;59.94
22830;BME280;11581;51.250;6.778;2023-01-24T12:38:36;103381.72;;;7.76;59.38
22830;BME280;11581;51.250;6.778;2023-01-24T12:41:10;103369.66;;;7.69;59.24
22830;BME280;11581;51.250;6.778;2023-01-24T12:43:48;103377.50;;;7.72;58.70
22830;BME280;11581;51.250;6.778;2023-01-24T12:46:25;103359.03;;;7.69;59.12
22830;BME280;11581;51.250;6.778;2023-01-24T12:49:00;103351.19;;;7.66;58.81
22830;BME280;11581;51.250;6.778;2023-01-24T12:51:30;103368.44;;;7.76;60.17
22830;BME280;11581;51.250;6.778;2023-01-24T12:54:02;103345.88;;;7.66;59.66
22830;BME280;11581;51.250;6.778;2023-01-24T12:56:39;103362.88;;;7.82;59.23
22830;BME280;11581;51.250;6.778;2023-01-24T12:59:10;103327.06;;;7.70;60.27
22830;BME280;11581;51.250;6.778;2023-01-24T13:02:01;103314.25;;;7.60;58.41
22830;BME280;11581;51.250;6.778;2023-01-24T13:04:41;103339.38;;;7.91;58.72
22830;BME280;11581;51.250;6.778;2023-01-24T13:07:22;103336.09;;;7.86;59.04
22830;BME280;11581;51.250;6.778;2023-01-24T13:09:55;103359.25;;;8.03;58.88
22830;BME280;11581;51.250;6.778;2023-01-24T13:12:26;103359.09;;;8.06;59.45
22830;BME280;11581;51.250;6.778;2023-01-24T13:14:55;103353.00;;;8.04;58.70
22830;BME280;11581;51.250;6.778;2023-01-24T13:17:43;103356.72;;;8.00;57.37
22830;BME280;11581;51.250;6.778;2023-01-24T13:20:39;103356.06;;;7.95;57.44
22830;BME280;11581;51.250;6.778;2023-01-24T13:23:30;103357.94;;;7.93;57.81
22830;BME280;11581;51.250;6.778;2023-01-24T13:26:13;103365.13;;;7.91;57.92